sensor_id;sensor_type;location;lat;lon;timestamp;temperature;humidity
11619;DHT22;5865;48.776;9.280;2022-12-18T00:02:57;-11.20;99.90
11619;DHT22;5865;48.776;9.280;2022-12-18T00:05:24;-11.30;99.90
11619;DHT22;5865;48.776;9.280;2022-12-18T00:07:57;-11.40;99.90
11619;DHT22;5865;48.776;9.280;2022-12-18T00:16:33;-11.20;99.90
11619;DHT22;5865;48.776;9.280;2022-12-18T00:19:14;-11.30;99.90
11619;DHT22;5865;48.776;9.280;2022-12-18T00:21:55;-11.30;99.90
11619;DHT22;5865;48.776;9.280;2022-12-18T00:24:23;-11.30;99.90
11619;DHT22;5865;48.776;9.280;2022-12-18T00:27:04;-11.30;99.90
11619;DHT22;5865;48.776;9.280;2022-12-18T00:55:36;-12.00;99.90
11619;DHT22;5865;48.776;9.280;2022-12-18T00:58:18;-12.00;99.90
11619;DHT22;5865;48.776;9.280;2022-12-18T01:01:04;-12.10;99.90
11619;DHT22;5865;48.776;9.280;2022-12-18T01:06:26;-12.10;99.90
11619;DHT22;5865;48.776;9.280;2022-12-18T01:09:06;-12.10;99.90
11619;DHT22;5865;48.776;9.280;2022-12-18T01:42:22;-9.80;99.90
11619;DHT22;5865;48.776;9.280;2022-12-18T01:45:06;-10.10;99.90
11619;DHT22;5865;48.776;9.280;2022-12-18T01:47:47;-10.20;99.90
11619;DHT22;5865;48.776;9.280;2022-12-18T01:50:31;-10.20;99.90
11619;DHT22;5865;48.776;9.280;2022-12-18T01:56:43;-10.30;99.90
11619;DHT22;5865;48.776;9.280;2022-12-18T01:59:23;-10.50;99.90
11619;DHT22;5865;48.776;9.280;2022-12-18T02:02:05;-10.40;99.90
11619;DHT22;5865;48.776;9.280;2022-12-18T02:07:23;-10.30;99.90
11619;DHT22;5865;48.776;9.280;2022-12-18T02:10:10;-9.70;99.90
11619;DHT22;5865;48.776;9.280;2022-12-18T02:13:01;-9.50;99.90
11619;DHT22;5865;48.776;9.280;2022-12-18T02:15:36;-9.50;99.90
11619;DHT22;5865;48.776;9.280;2022-12-18T02:18:23;-9.50;99.90
11619;DHT22;5865;48.776;9.280;2022-12-18T02:21:10;-9.50;99.90
11619;DHT22;5865;48.776;9.280;2022-12-18T02:23:59;-9.60;99.90
11619;DHT22;5865;48.776;9.280;2022-12-18T02:33:16;-9.20;99.90
11619;DHT22;5865;48.776;9.280;2022-12-18T02:35:44;-9.10;99.90
11619;DHT22;5865;48.776;9.280;2022-12-18T02:38:12;-9.30;99.90
11619;DHT22;5865;48.776;9.280;2022-12-18T02:43:15;-9.30;99.90
11619;DHT22;5865;48.776;9.280;2022-12-18T02:45:47;-9.40;99.90
11619;DHT22;5865;48.776;9.280;2022-12-18T02:48:34;-9.50;99.90
11619;DHT22;5865;48.776;9.280;2022-12-18T02:51:07;-9.60;99.90
11619;DHT22;5865;48.776;9.280;2022-12-18T02:53:40;-9.60;99.90
11619;DHT22;5865;48.776;9.280;2022-12-18T02:56:13;-9.50;99.90
11619;DHT22;5865;48.776;9.280;2022-12-18T02:58:49;-9.60;99.90
11619;DHT22;5865;48.776;9.280;2022-12-18T03:01:49;-9.60;99.90
11619;DHT22;5865;48.776;9.280;2022-12-18T03:04:23;-9.60;99.90
11619;DHT22;5865;48.776;9.280;2022-12-18T03:06:55;-9.60;99.90
11619;DHT22;5865;48.776;9.280;2022-12-18T03:09:40;-9.60;99.90
11619;DHT22;5865;48.776;9.280;2022-12-18T03:12:12;-9.70;99.90
11619;DHT22;5865;48.776;9.280;2022-12-18T03:15:09;-9.70;99.90
11619;DHT22;5865;48.776;9.280;2022-12-18T03:17:41;-9.70;99.90
11619;DHT22;5865;48.776;9.280;2022-12-18T03:23:47;-9.80;99.90
11619;DHT22;5865;48.776;9.280;2022-12-18T03:26:29;-9.90;99.90
11619;DHT22;5865;48.776;9.280;2022-12-18T03:29:04;-9.90;99.90
11619;DHT22;5865;48.776;9.280;2022-12-18T03:31:37;-9.90;99.90
11619;DHT22;5865;48.776;9.280;2022-12-18T03:34:11;-9.90;99.90
11619;DHT22;5865;48.776;9.280;2022-12-18T03:36:43;-9.90;99.90
11619;DHT22;5865;48.776;9.280;2022-12-18T03:39:15;-9.90;99.90
11619;DHT22;5865;48.776;9.280;2022-12-18T03:42:03;-9.80;99.90
11619;DHT22;5865;48.776;9.280;2022-12-18T03:44:40;-9.70;99.90
11619;DHT22;5865;48.776;9.280;2022-12-18T03:47:15;-9.40;99.90
11619;DHT22;5865;48.776;9.280;2022-12-18T03:49:47;-9.00;99.90
11619;DHT22;5865;48.776;9.280;2022-12-18T03:52:36;-9.00;99.90
11619;DHT22;5865;48.776;9.280;2022-12-18T03:55:11;-8.80;99.90
11619;DHT22;5865;48.776;9.280;2022-12-18T03:57:59;-8.90;99.90
11619;DHT22;5865;48.776;9.280;2022-12-18T04:00:40;-8.80;99.90
11619;DHT22;5865;48.776;9.280;2022-12-18T04:03:18;-8.50;99.90
11619;DHT22;5865;48.776;9.280;2022-12-18T04:05:50;-8.60;99.90
11619;DHT22;5865;48.776;9.280;2022-12-18T04:08:24;-8.80;99.90
11619;DHT22;5865;48.776;9.280;2022-12-18T04:11:02;-9.00;99.90
11619;DHT22;5865;48.776;9.280;2022-12-18T04:13:45;-9.00;99.90
11619;DHT22;5865;48.776;9.280;2022-12-18T04:16:27;-8.90;99.90
11619;DHT22;5865;48.776;9.280;2022-12-18T04:21:28;-9.40;99.90
11619;DHT22;5865;48.776;9.280;2022-12-18T04:23:57;-9.50;99.90
11619;DHT22;5865;48.776;9.280;2022-12-18T04:36:23;-10.20;99.90
11619;DHT22;5865;48.776;9.280;2022-12-18T04:38:54;-10.30;99.90
11619;DHT22;5865;48.776;9.280;2022-12-18T04:41:21;-10.40;99.90
11619;DHT22;5865;48.776;9.280;2022-12-18T04:44:03;-10.30;99.90
11619;DHT22;5865;48.776;9.280;2022-12-18T04:46:44;-10.30;99.90
11619;DHT22;5865;48.776;9.280;2022-12-18T04:49:25;-9.90;99.90
11619;DHT22;5865;48.776;9.280;2022-12-18T04:55:21;-9.90;99.90
11619;DHT22;5865;48.776;9.280;2022-12-18T04:58:04;-9.90;99.90
11619;DHT22;5865;48.776;9.280;2022-12-18T05:00:45;-9.30;99.90
11619;DHT22;5865;48.776;9.280;2022-12-18T05:03:12;-10.40;99.90
11619;DHT22;5865;48.776;9.280;2022-12-18T05:05:39;-10.40;99.90
11619;DHT22;5865;48.776;9.280;2022-12-18T05:08:06;-10.50;99.90
11619;DHT22;5865;48.776;9.280;2022-12-18T05:10:34;-10.50;99.90
11619;DHT22;5865;48.776;9.280;2022-12-18T05:13:01;-10.50;99.90
11619;DHT22;5865;48.776;9.280;2022-12-18T05:15:29;-10.70;99.90
11619;DHT22;5865;48.776;9.280;2022-12-18T05:17:56;-10.80;99.90
11619;DHT22;5865;48.776;9.280;2022-12-18T05:20:23;-10.90;99.90
11619;DHT22;5865;48.776;9.280;2022-12-18T05:22:51;-10.90;99.90
11619;DHT22;5865;48.776;9.280;2022-12-18T05:25:19;-10.90;99.90
11619;DHT22;5865;48.776;9.280;2022-12-18T05:27:48;-10.90;99.90
11619;DHT22;5865;48.776;9.280;2022-12-18T05:30:15;-11.00;99.90
11619;DHT22;5865;48.776;9.280;2022-12-18T05:32:42;-11.00;99.90
11619;DHT22;5865;48.776;9.280;2022-12-18T05:35:11;-11.10;99.90
11619;DHT22;5865;48.776;9.280;2022-12-18T05:37:38;-11.10;99.90
11619;DHT22;5865;48.776;9.280;2022-12-18T05:40:06;-10.50;99.90
11619;DHT22;5865;48.776;9.280;2022-12-18T05:42:33;-9.80;99.90
11619;DHT22;5865;48.776;9.280;2022-12-18T05:45:01;-9.90;99.90
11619;DHT22;5865;48.776;9.280;2022-12-18T05:47:29;-9.90;99.90
11619;DHT22;5865;48.776;9.280;2022-12-18T05:49:56;-9.40;99.90
11619;DHT22;5865;48.776;9.280;2022-12-18T05:52:23;-9.40;99.90
11619;DHT22;5865;48.776;9.280;2022-12-18T05:54:50;-10.00;99.90
11619;DHT22;5865;48.776;9.280;2022-12-18T05:57:17;-10.00;99.90
11619;DHT22;5865;48.776;9.280;2022-12-18T05:59:44;-10.40;99.90
11619;DHT22;5865;48.776;9.280;2022-12-18T06:02:12;-10.40;99.90
11619;DHT22;5865;48.776;9.280;2022-12-18T06:04:39;-10.90;99.90
11619;DHT22;5865;48.776;9.280;2022-12-18T06:07:06;-10.90;99.90
11619;DHT22;5865;48.776;9.280;2022-12-18T06:09:33;-11.10;99.90
11619;DHT22;5865;48.776;9.280;2022-12-18T06:12:00;-11.30;99.90
11619;DHT22;5865;48.776;9.280;2022-12-18T06:14:27;-11.60;99.90
11619;DHT22;5865;48.776;9.280;2022-12-18T06:16:54;-11.70;99.90
11619;DHT22;5865;48.776;9.280;2022-12-18T06:19:23;-11.80;99.90
11619;DHT22;5865;48.776;9.280;2022-12-18T06:21:50;-11.80;99.90
11619;DHT22;5865;48.776;9.280;2022-12-18T06:24:17;-11.80;99.90
11619;DHT22;5865;48.776;9.280;2022-12-18T06:26:44;-11.90;99.90
11619;DHT22;5865;48.776;9.280;2022-12-18T06:29:11;-12.00;99.90
11619;DHT22;5865;48.776;9.280;2022-12-18T06:31:38;-12.00;99.90
11619;DHT22;5865;48.776;9.280;2022-12-18T06:34:05;-12.00;99.90
11619;DHT22;5865;48.776;9.280;2022-12-18T06:36:33;-12.00;99.90
11619;DHT22;5865;48.776;9.280;2022-12-18T06:39:00;-11.90;99.90
11619;DHT22;5865;48.776;9.280;2022-12-18T06:41:27;-11.90;99.90
11619;DHT22;5865;48.776;9.280;2022-12-18T06:43:54;-12.00;99.90
11619;DHT22;5865;48.776;9.280;2022-12-18T06:46:21;-12.10;99.90
11619;DHT22;5865;48.776;9.280;2022-12-18T06:48:49;-12.10;99.90
11619;DHT22;5865;48.776;9.280;2022-12-18T06:51:18;-12.10;99.90
11619;DHT22;5865;48.776;9.280;2022-12-18T06:53:46;-12.00;99.90
11619;DHT22;5865;48.776;9.280;2022-12-18T06:56:14;-12.00;99.90
11619;DHT22;5865;48.776;9.280;2022-12-18T06:58:41;-12.00;99.90
11619;DHT22;5865;48.776;9.280;2022-12-18T07:01:09;-11.80;99.90
11619;DHT22;5865;48.776;9.280;2022-12-18T07:06:04;-11.90;99.90
11619;DHT22;5865;48.776;9.280;2022-12-18T07:08:32;-11.70;99.90
11619;DHT22;5865;48.776;9.280;2022-12-18T07:11:03;-11.70;99.90
11619;DHT22;5865;48.776;9.280;2022-12-18T07:13:31;-11.70;99.90
11619;DHT22;5865;48.776;9.280;2022-12-18T07:16:06;-11.90;99.90
11619;DHT22;5865;48.776;9.280;2022-12-18T07:18:34;-12.00;99.90
11619;DHT22;5865;48.776;9.280;2022-12-18T07:21:03;-12.20;99.90
11619;DHT22;5865;48.776;9.280;2022-12-18T07:23:32;-12.20;99.90
11619;DHT22;5865;48.776;9.280;2022-12-18T07:26:02;-12.20;99.90
11619;DHT22;5865;48.776;9.280;2022-12-18T07:28:30;-12.10;99.90
11619;DHT22;5865;48.776;9.280;2022-12-18T07:30:57;-12.10;99.90
11619;DHT22;5865;48.776;9.280;2022-12-18T07:33:24;-12.10;99.90
11619;DHT22;5865;48.776;9.280;2022-12-18T07:35:51;-12.10;99.90
11619;DHT22;5865;48.776;9.280;2022-12-18T07:38:18;-12.10;99.90
11619;DHT22;5865;48.776;9.280;2022-12-18T07:40:45;-12.00;99.90
11619;DHT22;5865;48.776;9.280;2022-12-18T07:43:14;-12.00;99.90
11619;DHT22;5865;48.776;9.280;2022-12-18T07:45:42;-12.00;99.90
11619;DHT22;5865;48.776;9.280;2022-12-18T07:48:09;-12.00;99.90
11619;DHT22;5865;48.776;9.280;2022-12-18T07:50:36;-11.80;99.90
11619;DHT22;5865;48.776;9.280;2022-12-18T07:53:03;-11.80;99.90
11619;DHT22;5865;48.776;9.280;2022-12-18T07:55:30;-11.50;99.90
11619;DHT22;5865;48.776;9.280;2022-12-18T07:58:01;-11.50;99.90
11619;DHT22;5865;48.776;9.280;2022-12-18T08:05:35;-11.30;99.90
11619;DHT22;5865;48.776;9.280;2022-12-18T08:08:02;-11.30;99.90
11619;DHT22;5865;48.776;9.280;2022-12-18T08:10:29;-11.20;99.90
11619;DHT22;5865;48.776;9.280;2022-12-18T08:12:59;-10.90;99.90
11619;DHT22;5865;48.776;9.280;2022-12-18T10:51:08;-3.70;99.90
11619;DHT22;5865;48.776;9.280;2022-12-18T10:53:42;-3.70;99.90
11619;DHT22;5865;48.776;9.280;2022-12-18T10:56:09;-3.40;99.90
11619;DHT22;5865;48.776;9.280;2022-12-18T10:58:38;-3.50;99.90
11619;DHT22;5865;48.776;9.280;2022-12-18T11:01:09;-3.50;99.90
11619;DHT22;5865;48.776;9.280;2022-12-18T11:03:38;-3.20;99.90
11619;DHT22;5865;48.776;9.280;2022-12-18T11:06:08;-3.40;99.90
11619;DHT22;5865;48.776;9.280;2022-12-18T11:08:35;-3.50;99.90
11619;DHT22;5865;48.776;9.280;2022-12-18T11:11:02;-3.40;99.90
11619;DHT22;5865;48.776;9.280;2022-12-18T11:13:31;-3.20;99.90
11619;DHT22;5865;48.776;9.280;2022-12-18T11:15:59;-3.20;99.90
11619;DHT22;5865;48.776;9.280;2022-12-18T11:18:29;-3.10;99.90
11619;DHT22;5865;48.776;9.280;2022-12-18T11:20:58;-3.10;99.90
11619;DHT22;5865;48.776;9.280;2022-12-18T11:23:27;-3.20;99.90
11619;DHT22;5865;48.776;9.280;2022-12-18T11:25:56;-2.70;99.90
11619;DHT22;5865;48.776;9.280;2022-12-18T11:28:33;-2.60;99.90
11619;DHT22;5865;48.776;9.280;2022-12-18T11:31:26;-2.40;99.90
11619;DHT22;5865;48.776;9.280;2022-12-18T11:34:04;-2.30;99.90
11619;DHT22;5865;48.776;9.280;2022-12-18T11:36:38;-2.30;99.90
11619;DHT22;5865;48.776;9.280;2022-12-18T11:39:12;-2.50;99.90
11619;DHT22;5865;48.776;9.280;2022-12-18T11:41:47;-2.40;99.90
11619;DHT22;5865;48.776;9.280;2022-12-18T11:44:46;-2.40;99.90
11619;DHT22;5865;48.776;9.280;2022-12-18T11:47:25;-2.40;99.90
11619;DHT22;5865;48.776;9.280;2022-12-18T11:50:00;-2.40;99.90
11619;DHT22;5865;48.776;9.280;2022-12-18T11:52:33;-2.30;99.90
11619;DHT22;5865;48.776;9.280;2022-12-18T11:55:10;-2.20;99.90
11619;DHT22;5865;48.776;9.280;2022-12-18T11:57:44;-2.00;99.90
11619;DHT22;5865;48.776;9.280;2022-12-18T12:00:19;-1.80;99.90
11619;DHT22;5865;48.776;9.280;2022-12-18T12:05:49;-1.80;99.90
11619;DHT22;5865;48.776;9.280;2022-12-18T12:08:22;-1.80;99.90
11619;DHT22;5865;48.776;9.280;2022-12-18T12:10:59;-1.70;99.90
11619;DHT22;5865;48.776;9.280;2022-12-18T12:13:40;-1.60;99.90
11619;DHT22;5865;48.776;9.280;2022-12-18T12:16:16;-1.80;99.90
11619;DHT22;5865;48.776;9.280;2022-12-18T12:19:04;-1.60;99.90
11619;DHT22;5865;48.776;9.280;2022-12-18T12:21:39;-1.60;99.90
11619;DHT22;5865;48.776;9.280;2022-12-18T12:24:23;-1.30;99.90
11619;DHT22;5865;48.776;9.280;2022-12-18T12:27:00;-1.20;99.90
11619;DHT22;5865;48.776;9.280;2022-12-18T12:29:39;-1.30;99.90
11619;DHT22;5865;48.776;9.280;2022-12-18T12:32:22;-1.40;99.90
11619;DHT22;5865;48.776;9.280;2022-12-18T12:35:03;-1.40;99.90
11619;DHT22;5865;48.776;9.280;2022-12-18T12:37:40;-0.90;99.90
11619;DHT22;5865;48.776;9.280;2022-12-18T12:40:12;-0.90;99.90
11619;DHT22;5865;48.776;9.280;2022-12-18T12:42:45;-0.80;99.90
11619;DHT22;5865;48.776;9.280;2022-12-18T12:45:36;-0.60;99.90
11619;DHT22;5865;48.776;9.280;2022-12-18T12:48:06;-0.60;99.90
11619;DHT22;5865;48.776;9.280;2022-12-18T12:50:37;-0.50;99.90
11619;DHT22;5865;48.776;9.280;2022-12-18T12:53:09;-0.60;99.90
11619;DHT22;5865;48.776;9.280;2022-12-18T13:03:27;0.20;99.90
11619;DHT22;5865;48.776;9.280;2022-12-18T13:05:59;-0.30;99.90
11619;DHT22;5865;48.776;9.280;2022-12-18T13:08:30;-0.40;99.90
11619;DHT22;5865;48.776;9.280;2022-12-18T13:10:58;-0.70;99.90
11619;DHT22;5865;48.776;9.280;2022-12-18T13:13:57;-0.30;99.90
11619;DHT22;5865;48.776;9.280;2022-12-18T13:16:25;-0.60;99.90
11619;DHT22;5865;48.776;9.280;2022-12-18T13:18:54;-0.70;99.90
11619;DHT22;5865;48.776;9.280;2022-12-18T13:21:25;-0.50;99.90
11619;DHT22;5865;48.776;9.280;2022-12-18T13:23:55;-0.50;99.90
11619;DHT22;5865;48.776;9.280;2022-12-18T13:26:31;-0.50;99.90
11619;DHT22;5865;48.776;9.280;2022-12-18T13:28:59;-0.50;99.90
11619;DHT22;5865;48.776;9.280;2022-12-18T13:31:58;0.00;99.90
11619;DHT22;5865;48.776;9.280;2022-12-18T13:34:26;0.10;99.90
11619;DHT22;5865;48.776;9.280;2022-12-18T13:36:56;-0.50;99.90
11619;DHT22;5865;48.776;9.280;2022-12-18T13:39:32;-0.60;99.90
11619;DHT22;5865;48.776;9.280;2022-12-18T13:45:44;-0.70;99.90
11619;DHT22;5865;48.776;9.280;2022-12-18T13:48:17;-0.70;99.90
11619;DHT22;5865;48.776;9.280;2022-12-18T13:50:49;-0.80;99.90
11619;DHT22;5865;48.776;9.280;2022-12-18T13:53:21;-0.80;99.90
11619;DHT22;5865;48.776;9.280;2022-12-18T13:55:51;-0.70;99.90
11619;DHT22;5865;48.776;9.280;2022-12-18T13:58:18;-0.60;99.90
11619;DHT22;5865;48.776;9.280;2022-12-18T14:00:45;-0.20;99.90
11619;DHT22;5865;48.776;9.280;2022-12-18T14:03:19;-0.20;99.90
11619;DHT22;5865;48.776;9.280;2022-12-18T14:05:53;0.00;99.90
11619;DHT22;5865;48.776;9.280;2022-12-18T14:08:21;0.10;99.90
11619;DHT22;5865;48.776;9.280;2022-12-18T14:10:51;0.20;99.90
11619;DHT22;5865;48.776;9.280;2022-12-18T14:13:23;0.10;99.90
11619;DHT22;5865;48.776;9.280;2022-12-18T14:15:51;0.30;99.90
11619;DHT22;5865;48.776;9.280;2022-12-18T14:18:21;0.40;99.90
11619;DHT22;5865;48.776;9.280;2022-12-18T14:20:50;0.40;99.90
11619;DHT22;5865;48.776;9.280;2022-12-18T14:23:30;0.30;99.90
11619;DHT22;5865;48.776;9.280;2022-12-18T14:25:59;0.00;99.90
11619;DHT22;5865;48.776;9.280;2022-12-18T14:28:26;-0.10;99.90
11619;DHT22;5865;48.776;9.280;2022-12-18T14:30:54;-0.40;99.90
11619;DHT22;5865;48.776;9.280;2022-12-18T14:33:23;-0.50;99.90
11619;DHT22;5865;48.776;9.280;2022-12-18T14:35:55;-0.90;99.90
11619;DHT22;5865;48.776;9.280;2022-12-18T14:38:29;-0.90;99.90
11619;DHT22;5865;48.776;9.280;2022-12-18T14:40:59;-0.90;99.90
11619;DHT22;5865;48.776;9.280;2022-12-18T14:43:27;-1.20;99.90
11619;DHT22;5865;48.776;9.280;2022-12-18T14:45:55;-1.50;99.90
11619;DHT22;5865;48.776;9.280;2022-12-18T14:48:35;-1.60;99.90
11619;DHT22;5865;48.776;9.280;2022-12-18T14:51:05;-1.80;99.90
11619;DHT22;5865;48.776;9.280;2022-12-18T14:53:38;-2.00;99.90
11619;DHT22;5865;48.776;9.280;2022-12-18T14:56:22;-2.20;99.90
11619;DHT22;5865;48.776;9.280;2022-12-18T14:58:53;-2.30;99.90
11619;DHT22;5865;48.776;9.280;2022-12-18T15:01:23;-2.50;99.90
11619;DHT22;5865;48.776;9.280;2022-12-18T15:03:51;-2.70;99.90
11619;DHT22;5865;48.776;9.280;2022-12-18T15:06:29;-3.10;99.90
11619;DHT22;5865;48.776;9.280;2022-12-18T15:08:58;-3.10;99.90
11619;DHT22;5865;48.776;9.280;2022-12-18T15:11:35;-3.40;99.90
11619;DHT22;5865;48.776;9.280;2022-12-18T15:14:24;-3.40;99.90
11619;DHT22;5865;48.776;9.280;2022-12-18T15:16:53;-3.70;99.90
11619;DHT22;5865;48.776;9.280;2022-12-18T15:19:21;-3.80;99.90
11619;DHT22;5865;48.776;9.280;2022-12-18T15:21:49;-3.90;99.90
11619;DHT22;5865;48.776;9.280;2022-12-18T15:24:26;-4.10;99.90
11619;DHT22;5865;48.776;9.280;2022-12-18T15:26:55;-4.30;99.90
11619;DHT22;5865;48.776;9.280;2022-12-18T15:29:22;-4.40;99.90
11619;DHT22;5865;48.776;9.280;2022-12-18T15:32:15;-4.50;99.90
11619;DHT22;5865;48.776;9.280;2022-12-18T15:34:45;-4.50;99.90
11619;DHT22;5865;48.776;9.280;2022-12-18T15:37:12;-4.70;99.90
11619;DHT22;5865;48.776;9.280;2022-12-18T15:39:39;-4.70;99.90
11619;DHT22;5865;48.776;9.280;2022-12-18T15:42:09;-4.80;99.90
11619;DHT22;5865;48.776;9.280;2022-12-18T15:44:54;-4.80;99.90
11619;DHT22;5865;48.776;9.280;2022-12-18T15:47:21;-5.00;99.90
11619;DHT22;5865;48.776;9.280;2022-12-18T15:49:48;-5.00;99.90
11619;DHT22;5865;48.776;9.280;2022-12-18T15:52:15;-4.90;99.90
11619;DHT22;5865;48.776;9.280;2022-12-18T15:54:51;-5.00;99.90
11619;DHT22;5865;48.776;9.280;2022-12-18T15:57:36;-5.20;99.90
11619;DHT22;5865;48.776;9.280;2022-12-18T16:00:04;-5.20;99.90
11619;DHT22;5865;48.776;9.280;2022-12-18T16:02:31;-5.30;99.90
11619;DHT22;5865;48.776;9.280;2022-12-18T16:04:58;-5.30;99.90
11619;DHT22;5865;48.776;9.280;2022-12-18T16:07:25;-5.40;99.90
11619;DHT22;5865;48.776;9.280;2022-12-18T16:09:52;-5.50;99.90
11619;DHT22;5865;48.776;9.280;2022-12-18T16:12:21;-5.50;99.90
11619;DHT22;5865;48.776;9.280;2022-12-18T16:14:50;-5.60;99.90
11619;DHT22;5865;48.776;9.280;2022-12-18T16:17:17;-5.50;99.90
11619;DHT22;5865;48.776;9.280;2022-12-18T16:19:44;-5.60;99.90
11619;DHT22;5865;48.776;9.280;2022-12-18T16:22:21;-5.60;99.90
11619;DHT22;5865;48.776;9.280;2022-12-18T16:24:49;-5.60;99.90
11619;DHT22;5865;48.776;9.280;2022-12-18T16:27:16;-5.50;99.90
11619;DHT22;5865;48.776;9.280;2022-12-18T16:29:44;-5.50;99.90
11619;DHT22;5865;48.776;9.280;2022-12-18T16:32:15;-5.50;99.90
11619;DHT22;5865;48.776;9.280;2022-12-18T16:34:42;-5.50;99.90
11619;DHT22;5865;48.776;9.280;2022-12-18T16:37:12;-5.50;99.90
11619;DHT22;5865;48.776;9.280;2022-12-18T16:39:40;-5.50;99.90
11619;DHT22;5865;48.776;9.280;2022-12-18T16:42:11;-5.50;99.90
11619;DHT22;5865;48.776;9.280;2022-12-18T16:44:40;-5.50;99.90
11619;DHT22;5865;48.776;9.280;2022-12-18T16:47:07;-5.40;99.90
11619;DHT22;5865;48.776;9.280;2022-12-18T16:49:35;-5.40;99.90
11619;DHT22;5865;48.776;9.280;2022-12-18T16:52:02;-5.40;99.90
11619;DHT22;5865;48.776;9.280;2022-12-18T16:54:30;-5.40;99.90
11619;DHT22;5865;48.776;9.280;2022-12-18T16:56:58;-5.40;99.90
11619;DHT22;5865;48.776;9.280;2022-12-18T16:59:25;-5.30;99.90
11619;DHT22;5865;48.776;9.280;2022-12-18T17:01:52;-5.30;99.90
11619;DHT22;5865;48.776;9.280;2022-12-18T17:04:20;-5.30;99.90
11619;DHT22;5865;48.776;9.280;2022-12-18T17:06:48;-5.20;99.90
11619;DHT22;5865;48.776;9.280;2022-12-18T17:09:18;-5.20;99.90
11619;DHT22;5865;48.776;9.280;2022-12-18T17:11:46;-5.20;99.90
11619;DHT22;5865;48.776;9.280;2022-12-18T17:14:15;-5.20;99.90
11619;DHT22;5865;48.776;9.280;2022-12-18T17:16:42;-5.10;99.90
11619;DHT22;5865;48.776;9.280;2022-12-18T17:19:10;-5.00;99.90
11619;DHT22;5865;48.776;9.280;2022-12-18T17:21:37;-4.90;99.90
11619;DHT22;5865;48.776;9.280;2022-12-18T17:24:06;-4.80;99.90
11619;DHT22;5865;48.776;9.280;2022-12-18T17:26:33;-4.60;99.90
11619;DHT22;5865;48.776;9.280;2022-12-18T17:29:00;-4.40;99.90
11619;DHT22;5865;48.776;9.280;2022-12-18T17:31:28;-4.30;99.90
11619;DHT22;5865;48.776;9.280;2022-12-18T17:33:56;-4.10;99.90
11619;DHT22;5865;48.776;9.280;2022-12-18T17:36:24;-4.10;99.90
11619;DHT22;5865;48.776;9.280;2022-12-18T17:38:54;-4.10;99.90
11619;DHT22;5865;48.776;9.280;2022-12-18T17:41:24;-4.00;99.90
11619;DHT22;5865;48.776;9.280;2022-12-18T17:43:52;-3.90;99.90
11619;DHT22;5865;48.776;9.280;2022-12-18T17:46:19;-3.60;99.90
11619;DHT22;5865;48.776;9.280;2022-12-18T17:48:47;-3.60;99.90
11619;DHT22;5865;48.776;9.280;2022-12-18T17:51:15;-3.50;99.90
11619;DHT22;5865;48.776;9.280;2022-12-18T17:53:42;-3.50;99.90
11619;DHT22;5865;48.776;9.280;2022-12-18T17:56:12;-3.50;99.90
11619;DHT22;5865;48.776;9.280;2022-12-18T17:58:42;-3.40;99.90
11619;DHT22;5865;48.776;9.280;2022-12-18T18:01:12;-3.40;99.90
11619;DHT22;5865;48.776;9.280;2022-12-18T18:03:39;-3.40;99.90
11619;DHT22;5865;48.776;9.280;2022-12-18T18:06:07;-3.30;99.90
11619;DHT22;5865;48.776;9.280;2022-12-18T18:08:35;-3.30;99.90
11619;DHT22;5865;48.776;9.280;2022-12-18T18:11:04;-3.30;99.90
11619;DHT22;5865;48.776;9.280;2022-12-18T18:13:46;-3.30;99.90
11619;DHT22;5865;48.776;9.280;2022-12-18T18:16:28;-3.30;99.90
11619;DHT22;5865;48.776;9.280;2022-12-18T18:18:57;-3.30;99.90
11619;DHT22;5865;48.776;9.280;2022-12-18T18:21:24;-3.30;99.90
11619;DHT22;5865;48.776;9.280;2022-12-18T18:23:51;-3.30;99.90
11619;DHT22;5865;48.776;9.280;2022-12-18T18:26:18;-3.30;99.90
11619;DHT22;5865;48.776;9.280;2022-12-18T18:28:48;-3.40;99.90
11619;DHT22;5865;48.776;9.280;2022-12-18T18:31:15;-3.30;99.90
11619;DHT22;5865;48.776;9.280;2022-12-18T18:33:42;-3.30;99.90
11619;DHT22;5865;48.776;9.280;2022-12-18T18:36:10;-3.40;99.90
11619;DHT22;5865;48.776;9.280;2022-12-18T18:38:37;-3.30;99.90
11619;DHT22;5865;48.776;9.280;2022-12-18T18:41:05;-3.30;99.90
11619;DHT22;5865;48.776;9.280;2022-12-18T18:43:33;-3.30;99.90
11619;DHT22;5865;48.776;9.280;2022-12-18T18:46:03;-3.30;99.90
11619;DHT22;5865;48.776;9.280;2022-12-18T18:48:32;-3.20;99.90
11619;DHT22;5865;48.776;9.280;2022-12-18T18:51:02;-3.20;99.90
11619;DHT22;5865;48.776;9.280;2022-12-18T18:53:30;-3.20;99.90
11619;DHT22;5865;48.776;9.280;2022-12-18T18:55:57;-3.20;99.90
11619;DHT22;5865;48.776;9.280;2022-12-18T18:58:25;-3.20;99.90
11619;DHT22;5865;48.776;9.280;2022-12-18T19:00:56;-3.20;99.90
11619;DHT22;5865;48.776;9.280;2022-12-18T19:03:26;-3.20;99.90
11619;DHT22;5865;48.776;9.280;2022-12-18T19:05:54;-3.20;99.90
11619;DHT22;5865;48.776;9.280;2022-12-18T19:08:26;-3.20;99.90
11619;DHT22;5865;48.776;9.280;2022-12-18T19:10:54;-3.20;99.90
11619;DHT22;5865;48.776;9.280;2022-12-18T19:13:22;-3.20;99.90
11619;DHT22;5865;48.776;9.280;2022-12-18T19:15:52;-3.10;99.90
11619;DHT22;5865;48.776;9.280;2022-12-18T19:18:20;-3.20;99.90
11619;DHT22;5865;48.776;9.280;2022-12-18T19:20:55;-3.10;99.90
11619;DHT22;5865;48.776;9.280;2022-12-18T19:23:23;-3.10;99.90
11619;DHT22;5865;48.776;9.280;2022-12-18T19:25:50;-3.20;99.90
11619;DHT22;5865;48.776;9.280;2022-12-18T19:28:17;-3.20;99.90
11619;DHT22;5865;48.776;9.280;2022-12-18T19:30:45;-3.20;99.90
11619;DHT22;5865;48.776;9.280;2022-12-18T19:33:12;-3.30;99.90
11619;DHT22;5865;48.776;9.280;2022-12-18T19:35:39;-3.30;99.90
11619;DHT22;5865;48.776;9.280;2022-12-18T19:38:07;-3.30;99.90
11619;DHT22;5865;48.776;9.280;2022-12-18T19:40:34;-3.30;99.90
11619;DHT22;5865;48.776;9.280;2022-12-18T19:43:01;-3.30;99.90
11619;DHT22;5865;48.776;9.280;2022-12-18T19:47:55;-3.30;99.90
11619;DHT22;5865;48.776;9.280;2022-12-18T19:50:22;-3.30;99.90
11619;DHT22;5865;48.776;9.280;2022-12-18T19:52:50;-3.30;99.90
11619;DHT22;5865;48.776;9.280;2022-12-18T19:55:18;-3.30;99.90
11619;DHT22;5865;48.776;9.280;2022-12-18T19:57:45;-3.30;99.90
11619;DHT22;5865;48.776;9.280;2022-12-18T20:00:13;-3.30;99.90
11619;DHT22;5865;48.776;9.280;2022-12-18T20:02:40;-3.30;99.90
11619;DHT22;5865;48.776;9.280;2022-12-18T20:05:10;-3.30;99.90
11619;DHT22;5865;48.776;9.280;2022-12-18T20:07:37;-3.30;99.90
11619;DHT22;5865;48.776;9.280;2022-12-18T20:12:34;-3.20;99.90
11619;DHT22;5865;48.776;9.280;2022-12-18T20:15:01;-3.20;99.90
11619;DHT22;5865;48.776;9.280;2022-12-18T20:17:31;-3.20;99.90
11619;DHT22;5865;48.776;9.280;2022-12-18T20:19:58;-3.20;99.90
11619;DHT22;5865;48.776;9.280;2022-12-18T20:22:25;-3.20;99.90
11619;DHT22;5865;48.776;9.280;2022-12-18T20:24:52;-3.30;99.90
11619;DHT22;5865;48.776;9.280;2022-12-18T20:29:48;-3.30;99.90
11619;DHT22;5865;48.776;9.280;2022-12-18T20:34:42;-3.30;99.90
11619;DHT22;5865;48.776;9.280;2022-12-18T20:37:09;-3.30;99.90
11619;DHT22;5865;48.776;9.280;2022-12-18T20:39:36;-3.30;99.90
11619;DHT22;5865;48.776;9.280;2022-12-18T20:42:03;-3.30;99.90
11619;DHT22;5865;48.776;9.280;2022-12-18T20:44:32;-3.40;99.90
11619;DHT22;5865;48.776;9.280;2022-12-18T20:47:00;-3.30;99.90
11619;DHT22;5865;48.776;9.280;2022-12-18T20:49:28;-3.30;99.90
11619;DHT22;5865;48.776;9.280;2022-12-18T20:51:56;-3.30;99.90
11619;DHT22;5865;48.776;9.280;2022-12-18T20:54:25;-3.20;99.90
11619;DHT22;5865;48.776;9.280;2022-12-18T20:56:52;-3.20;99.90
11619;DHT22;5865;48.776;9.280;2022-12-18T20:59:20;-3.30;99.90